Time;durP1;ratioP1;P1;durP2;ratioP2;P2;SDS_P1;SDS_P2;PMS_P1;PMS_P2;Temp;Humidity;BMP_temperature;BMP_pressure;BME280_temperature;BME280_humidity;BME280_pressure;Samples;Min_cycle;Max_cycle;Signal;HPM_P1;HPM_P2
2022/09/09 00:00:21;;;;;;;;;;;;;;;14.29;100.00;100155.78;3058319;19;19947;-45
2022/09/09 00:01:31;;;;;;;;;;;;;;;14.27;100.00;100143.47;3058674;19;19930;-47
2022/09/09 00:02:32;;;;;;;;;;;;;;;14.10;100.00;100126.09;3057205;19;19935;-48
2022/09/09 00:03:56;;;;;;;;;;;;;;;14.06;100.00;100130.84;3057916;19;20263;-45
2022/09/09 00:05:16;;;;;;;;;;;;;;;14.10;100.00;100135.97;3058135;19;20319;-48
2022/09/09 00:06:25;;;;;;;;;;;;;;;14.12;100.00;100128.66;3058173;19;19915;-50
2022/09/09 00:07:45;;;;;;;;;;;;;;;14.10;100.00;100127.91;3057245;19;20339;-45
2022/09/09 00:08:54;;;;;;;;;;;;;;;13.97;100.00;100126.22;3057541;19;20338;-48
2022/09/09 00:10:00;;;;;;;;;;;;;;;13.84;100.00;100109.44;3058269;19;20361;-45
2022/09/09 00:11:05;;;;;;;;;;;;;;;13.77;100.00;100121.59;3057767;19;19935;-45
2022/09/09 00:12:10;;;;;;;;;;;;;;;13.76;100.00;100130.66;3057355;19;19935;-45
2022/09/09 00:13:23;;;;;;;;;;;;;;;13.73;100.00;100122.00;3057616;19;19923;-47
2022/09/09 00:14:28;;;;;;;;;;;;;;;13.67;100.00;100118.81;3057320;19;19996;-44
2022/09/09 00:15:39;;;;;;;;;;;;;;;13.50;100.00;100115.81;3057352;19;20027;-45
2022/09/09 00:16:41;;;;;;;;;;;;;;;13.57;100.00;100114.31;3056909;19;20058;-46
2022/09/09 00:17:48;;;;;;;;;;;;;;;13.51;100.00;100112.16;3057229;19;19918;-45
2022/09/09 00:19:05;;;;;;;;;;;;;;;13.49;100.00;100100.69;3057350;19;19997;-46
2022/09/09 00:20:12;;;;;;;;;;;;;;;13.53;100.00;100110.16;3057209;19;20310;-47
2022/09/09 00:21:15;;;;;;;;;;;;;;;13.47;100.00;100098.13;3057929;19;20328;-47
2022/09/09 00:22:20;;;;;;;;;;;;;;;13.43;100.00;100095.81;3057077;19;19943;-45
2022/09/09 00:23:24;;;;;;;;;;;;;;;13.42;100.00;100104.81;3057905;19;19982;-47
2022/09/09 00:24:29;;;;;;;;;;;;;;;13.44;100.00;100100.19;3058296;19;19919;-46
2022/09/09 00:25:36;;;;;;;;;;;;;;;13.39;100.00;100084.50;3057115;19;20591;-47
2022/09/09 00:26:42;;;;;;;;;;;;;;;13.43;100.00;100077.03;3057653;19;20000;-45
2022/09/09 00:27:45;;;;;;;;;;;;;;;13.44;100.00;100089.47;3057754;19;19923;-46
2022/09/09 00:28:58;;;;;;;;;;;;;;;13.43;100.00;100088.63;3058120;19;19927;-48
2022/09/09 00:30:19;;;;;;;;;;;;;;;13.36;100.00;100075.84;3057855;19;20494;-45
2022/09/09 00:31:28;;;;;;;;;;;;;;;13.43;100.00;100077.03;3057804;19;19939;-48
2022/09/09 00:32:30;;;;;;;;;;;;;;;13.41;100.00;100068.25;3057011;19;19931;-47
2022/09/09 00:33:35;;;;;;;;;;;;;;;13.44;100.00;100070.72;3057112;19;19923;-45
2022/09/09 00:34:36;;;;;;;;;;;;;;;13.41;100.00;100084.34;3057413;19;20302;-45
2022/09/09 00:35:46;;;;;;;;;;;;;;;13.39;100.00;100075.59;3056959;19;19948;-48
2022/09/09 00:36:49;;;;;;;;;;;;;;;13.44;100.00;100081.44;3056708;19;19936;-48
2022/09/09 00:37:54;;;;;;;;;;;;;;;13.44;100.00;100065.34;3055221;19;19935;-48
2022/09/09 00:38:57;;;;;;;;;;;;;;;13.35;100.00;100072.31;3057566;19;20006;-48
2022/09/09 00:40:03;;;;;;;;;;;;;;;13.39;100.00;100076.44;3057014;19;19922;-47
2022/09/09 00:41:08;;;;;;;;;;;;;;;13.43;100.00;100071.69;3056691;19;19943;-46
2022/09/09 00:42:15;;;;;;;;;;;;;;;13.37;100.00;100072.19;3056599;19;19919;-48
2022/09/09 00:43:35;;;;;;;;;;;;;;;13.41;100.00;100062.91;3057131;19;20270;-45
2022/09/09 00:44:37;;;;;;;;;;;;;;;13.47;100.00;100082.03;3056897;19;20338;-47
2022/09/09 00:45:42;;;;;;;;;;;;;;;13.40;100.00;100066.59;3056922;19;19927;-45
2022/09/09 00:47:03;;;;;;;;;;;;;;;13.41;100.00;100076.31;3056977;19;19922;-48
2022/09/09 00:48:09;;;;;;;;;;;;;;;13.42;100.00;100070.81;3057395;19;19919;-45
2022/09/09 00:49:30;;;;;;;;;;;;;;;13.44;100.00;100073.38;3056979;19;19919;-46
2022/09/09 00:50:43;;;;;;;;;;;;;;;13.40;100.00;100063.91;3056921;19;20001;-45
2022/09/09 00:52:04;;;;;;;;;;;;;;;13.37;100.00;100080.22;3056755;19;19923;-45
2022/09/09 00:53:12;;;;;;;;;;;;;;;13.37;100.00;100072.19;3057162;19;19935;-47
2022/09/09 00:54:32;;;;;;;;;;;;;;;13.44;100.00;100071.56;3057685;19;19919;-47
2022/09/09 00:55:37;;;;;;;;;;;;;;;13.46;100.00;100071.44;3056916;19;19947;-44
2022/09/09 00:56:45;;;;;;;;;;;;;;;13.45;100.00;100081.31;3056649;19;20436;-48
2022/09/09 00:57:51;;;;;;;;;;;;;;;13.57;100.00;100063.38;3056889;19;19932;-48
2022/09/09 00:59:12;;;;;;;;;;;;;;;13.61;100.00;100070.22;3056413;19;20035;-46
2022/09/09 01:00:20;;;;;;;;;;;;;;;13.58;100.00;100073.13;3057060;19;20406;-48
2022/09/09 01:01:22;;;;;;;;;;;;;;;13.62;100.00;100077.28;3056602;19;20298;-46
2022/09/09 01:02:42;;;;;;;;;;;;;;;13.64;100.00;100080.69;3056583;19;19950;-47
2022/09/09 01:03:54;;;;;;;;;;;;;;;13.64;100.00;100091.44;3056811;19;19919;-46
2022/09/09 01:05:01;;;;;;;;;;;;;;;13.60;100.00;100081.91;3056766;19;20212;-47
2022/09/09 01:06:03;;;;;;;;;;;;;;;13.63;100.00;100074.47;3056458;19;20556;-48
2022/09/09 01:07:15;;;;;;;;;;;;;;;13.60;100.00;100071.19;3056788;19;19937;-45
2022/09/09 01:08:38;;;;;;;;;;;;;;;13.46;100.00;100069.63;3056573;19;20328;-45
2022/09/09 01:09:46;;;;;;;;;;;;;;;13.55;100.00;100070.69;3055761;19;20721;-48
2022/09/09 01:10:53;;;;;;;;;;;;;;;13.59;100.00;100074.84;3056457;19;19926;-48
2022/09/09 01:12:07;;;;;;;;;;;;;;;13.49;100.00;100073.88;3056291;19;19926;-45
2022/09/09 01:13:14;;;;;;;;;;;;;;;13.33;100.00;100080.47;3056198;19;19923;-48
2022/09/09 01:14:17;;;;;;;;;;;;;;;13.39;100.00;100063.06;3056656;19;19947;-48
2022/09/09 01:15:25;;;;;;;;;;;;;;;13.40;100.00;100064.75;3056302;19;20334;-48
2022/09/09 01:16:29;;;;;;;;;;;;;;;13.44;100.00;100063.50;3057003;19;19977;-46
2022/09/09 01:17:47;;;;;;;;;;;;;;;13.37;100.00;100042.69;3055675;19;20350;-47
2022/09/09 01:18:49;;;;;;;;;;;;;;;13.42;100.00;100060.09;3056718;19;20301;-47
2022/09/09 01:20:00;;;;;;;;;;;;;;;13.50;100.00;100054.16;3056197;19;19919;-49
2022/09/09 01:21:19;;;;;;;;;;;;;;;13.44;100.00;100063.50;3057080;19;20149;-48
2022/09/09 01:22:22;;;;;;;;;;;;;;;13.47;100.00;100059.75;3056261;19;19947;-44
2022/09/09 01:23:46;;;;;;;;;;;;;;;13.44;100.00;100068.88;3055259;19;19927;-46
2022/09/09 01:25:14;;;;;;;;;;;;;;;13.46;100.00;100066.06;3056641;19;19966;-46
2022/09/09 01:26:36;;;;;;;;;;;;;;;13.52;100.00;100061.09;3056468;19;19953;-47
2022/09/09 01:27:42;;;;;;;;;;;;;;;13.51;100.00;100048.66;3055927;19;19923;-47
2022/09/09 01:28:48;;;;;;;;;;;;;;;13.50;100.00;100056.81;3056633;19;19923;-45
2022/09/09 01:29:51;;;;;;;;;;;;;;;13.55;100.00;100049.25;3056433;19;19926;-46
2022/09/09 01:30:57;;;;;;;;;;;;;;;13.50;100.00;100048.78;3056298;19;19931;-45
2022/09/09 01:32:01;;;;;;;;;;;;;;;13.44;100.00;100057.31;3056314;19;19931;-45
2022/09/09 01:33:06;;;;;;;;;;;;;;;13.52;100.00;100052.19;3056416;19;19983;-47
2022/09/09 01:34:12;;;;;;;;;;;;;;;13.57;100.00;100052.66;3056156;19;19918;-48
2022/09/09 01:35:34;;;;;;;;;;;;;;;13.52;100.00;100038.78;3057190;19;20000;-46
2022/09/09 01:36:40;;;;;;;;;;;;;;;13.48;100.00;100040.84;3056397;19;19922;-47
2022/09/09 01:37:45;;;;;;;;;;;;;;;13.52;100.00;100050.38;3056335;19;19915;-47
2022/09/09 01:38:47;;;;;;;;;;;;;;;13.59;100.00;100045.34;3056313;19;19918;-46
2022/09/09 01:39:52;;;;;;;;;;;;;;;13.52;100.00;100054.88;3056566;19;19926;-47
2022/09/09 01:40:54;;;;;;;;;;;;;;;13.60;100.00;100057.78;3055600;19;19919;-48
2022/09/09 01:42:05;;;;;;;;;;;;;;;13.66;100.00;100058.13;3056424;19;19919;-48
2022/09/09 01:43:07;;;;;;;;;;;;;;;13.72;100.00;100064.84;3056136;19;19998;-44
2022/09/09 01:44:12;;;;;;;;;;;;;;;13.76;100.00;100068.97;3055880;19;19923;-45
2022/09/09 01:45:18;;;;;;;;;;;;;;;13.74;100.00;100057.53;3056100;19;19983;-48
2022/09/09 01:46:23;;;;;;;;;;;;;;;13.73;100.00;100071.91;3056052;19;20033;-45
2022/09/09 01:47:26;;;;;;;;;;;;;;;13.70;100.00;100064.09;3056564;19;19915;-44
2022/09/09 01:48:38;;;;;;;;;;;;;;;13.67;100.00;100056.28;3055865;19;19926;-46
2022/09/09 01:49:43;;;;;;;;;;;;;;;13.65;100.00;100060.94;3055877;19;20247;-46
2022/09/09 01:50:56;;;;;;;;;;;;;;;13.66;100.00;100057.28;3055997;19;19951;-45
2022/09/09 01:52:00;;;;;;;;;;;;;;;13.69;100.00;100057.03;3056214;19;19922;-46
2022/09/09 01:53:08;;;;;;;;;;;;;;;13.70;100.00;100053.38;3055836;19;19927;-48
2022/09/09 01:54:12;;;;;;;;;;;;;;;13.75;100.00;100061.91;3056211;19;19927;-48
2022/09/09 01:55:14;;;;;;;;;;;;;;;13.76;100.00;100058.25;3055920;19;19938;-45
2022/09/09 01:56:23;;;;;;;;;;;;;;;13.77;100.00;100059.94;3056291;19;20371;-48
2022/09/09 01:57:27;;;;;;;;;;;;;;;13.83;100.00;100062.13;3055726;19;19919;-48
2022/09/09 01:58:32;;;;;;;;;;;;;;;13.82;100.00;100057.72;3055844;19;20278;-48
2022/09/09 01:59:41;;;;;;;;;;;;;;;13.78;100.00;100056.28;3055936;19;19951;-45
2022/09/09 02:01:06;;;;;;;;;;;;;;;13.75;100.00;100056.53;3056177;19;19915;-47
2022/09/09 02:02:21;;;;;;;;;;;;;;;13.74;100.00;100060.19;3055210;19;19978;-48
2022/09/09 02:03:34;;;;;;;;;;;;;;;13.78;100.00;100061.63;3055110;19;19990;-45
2022/09/09 02:04:50;;;;;;;;;;;;;;;13.83;100.00;100056.75;3055839;19;20259;-44
2022/09/09 02:06:02;;;;;;;;;;;;;;;13.78;100.00;100058.94;3055983;19;19927;-46
2022/09/09 02:07:09;;;;;;;;;;;;;;;13.83;100.00;100059.44;3056251;19;20064;-46
2022/09/09 02:08:23;;;;;;;;;;;;;;;13.81;100.00;100057.84;3055923;19;19943;-48
2022/09/09 02:09:31;;;;;;;;;;;;;;;13.75;100.00;100051.19;3055778;19;19961;-44
2022/09/09 02:10:42;;;;;;;;;;;;;;;13.79;100.00;100054.44;3056059;19;19962;-48
2022/09/09 02:11:49;;;;;;;;;;;;;;;13.70;100.00;100064.09;3055827;19;20039;-48
2022/09/09 02:13:12;;;;;;;;;;;;;;;13.69;100.00;100060.56;3055937;19;19919;-46
2022/09/09 02:14:16;;;;;;;;;;;;;;;13.72;100.00;100051.41;3055628;19;19947;-45
2022/09/09 02:15:26;;;;;;;;;;;;;;;13.76;100.00;100047.53;3055831;19;19934;-48
2022/09/09 02:16:31;;;;;;;;;;;;;;;13.73;100.00;100063.84;3055695;19;20386;-48
2022/09/09 02:17:36;;;;;;;;;;;;;;;13.69;100.00;100055.19;3055387;19;19926;-46
2022/09/09 02:18:48;;;;;;;;;;;;;;;13.76;100.00;100052.88;3057230;19;19937;-46
2022/09/09 02:19:55;;;;;;;;;;;;;;;13.81;100.00;100060.53;3055067;19;19919;-48
2022/09/09 02:21:07;;;;;;;;;;;;;;;13.84;100.00;100061.16;3056054;19;19923;-45
2022/09/09 02:22:11;;;;;;;;;;;;;;;13.86;100.00;100061.88;3055580;19;19947;-46
2022/09/09 02:23:13;;;;;;;;;;;;;;;13.84;100.00;100061.16;3055772;19;19919;-47
2022/09/09 02:24:19;;;;;;;;;;;;;;;13.82;100.00;100062.25;3054923;19;19975;-47
2022/09/09 02:25:33;;;;;;;;;;;;;;;13.84;100.00;100061.16;3055554;19;19922;-48
2022/09/09 02:26:52;;;;;;;;;;;;;;;13.91;100.00;100059.66;3055503;19;20626;-46
2022/09/09 02:27:58;;;;;;;;;;;;;;;13.77;100.00;100054.56;3055531;19;19923;-47
2022/09/09 02:29:03;;;;;;;;;;;;;;;13.73;100.00;100058.50;3055620;19;19923;-48
2022/09/09 02:30:05;;;;;;;;;;;;;;;13.79;100.00;100057.13;3055343;19;19922;-47
2022/09/09 02:31:25;;;;;;;;;;;;;;;13.78;100.00;100056.28;3055681;19;19930;-48
2022/09/09 02:32:33;;;;;;;;;;;;;;;13.81;100.00;100050.66;3054911;19;20010;-48
2022/09/09 02:33:43;;;;;;;;;;;;;;;13.72;100.00;100051.41;3055475;19;19944;-50
2022/09/09 02:34:48;;;;;;;;;;;;;;;13.76;100.00;100047.53;3055543;19;19939;-47
2022/09/09 02:35:53;;;;;;;;;;;;;;;13.76;100.00;100052.03;3055696;19;19911;-45
2022/09/09 02:36:57;;;;;;;;;;;;;;;13.79;100.00;100052.63;3055063;19;19923;-48
2022/09/09 02:38:03;;;;;;;;;;;;;;;13.69;100.00;100051.66;3055574;19;20306;-45
2022/09/09 02:39:05;;;;;;;;;;;;;;;13.74;100.00;100045.94;3055079;19;20031;-50
2022/09/09 02:40:13;;;;;;;;;;;;;;;13.73;100.00;100046.91;3055502;19;20403;-45
2022/09/09 02:41:25;;;;;;;;;;;;;;;13.66;100.00;100051.91;3054661;19;19923;-45
2022/09/09 02:42:28;;;;;;;;;;;;;;;13.61;100.00;100043.41;3055126;19;19919;-46
2022/09/09 02:43:37;;;;;;;;;;;;;;;13.56;100.00;100034.88;3055280;19;19947;-47
2022/09/09 02:44:42;;;;;;;;;;;;;;;13.57;100.00;100033.91;3055311;19;19930;-45
2022/09/09 02:46:06;;;;;;;;;;;;;;;13.48;100.00;100037.31;3055361;19;19927;-46
2022/09/09 02:47:17;;;;;;;;;;;;;;;13.51;100.00;100026.38;3054898;19;19967;-46
2022/09/09 02:48:46;;;;;;;;;;;;;;;13.46;100.00;100024.03;3055423;19;19943;-45
2022/09/09 02:49:50;;;;;;;;;;;;;;;13.45;100.00;100021.47;3054412;19;19952;-48
2022/09/09 02:50:59;;;;;;;;;;;;;;;13.43;100.00;100028.78;3055538;19;19933;-45
2022/09/09 02:52:18;;;;;;;;;;;;;;;13.29;100.00;100012.00;3055282;19;19925;-47
2022/09/09 02:53:26;;;;;;;;;;;;;;;13.29;100.00;100009.31;3055225;19;19927;-47
2022/09/09 02:54:31;;;;;;;;;;;;;;;13.34;100.00;100008.94;3055365;19;19927;-48
2022/09/09 02:55:42;;;;;;;;;;;;;;;13.30;100.00;100002.13;3055192;19;19943;-45
2022/09/09 02:56:50;;;;;;;;;;;;;;;13.27;100.00;100005.94;3055222;19;19955;-47
2022/09/09 02:57:55;;;;;;;;;;;;;;;13.26;100.00;99992.66;3055001;19;20011;-46
2022/09/09 02:58:57;;;;;;;;;;;;;;;13.27;100.00;100000.56;3055195;19;20575;-48
2022/09/09 03:00:03;;;;;;;;;;;;;;;13.21;100.00;99998.38;3055262;19;19918;-44
2022/09/09 03:01:07;;;;;;;;;;;;;;;13.17;100.00;99991.53;3053123;19;19939;-48
2022/09/09 03:02:12;;;;;;;;;;;;;;;13.22;100.00;99986.69;3055113;19;19927;-47
2022/09/09 03:03:17;;;;;;;;;;;;;;;13.25;100.00;99991.78;3055090;19;19939;-47
2022/09/09 03:04:21;;;;;;;;;;;;;;;13.19;100.00;99984.22;3054397;19;19923;-45
2022/09/09 03:05:23;;;;;;;;;;;;;;;13.21;100.00;99993.00;3055094;19;19919;-47
2022/09/09 03:06:28;;;;;;;;;;;;;;;13.20;100.00;99985.94;3055094;19;19986;-48
2022/09/09 03:07:39;;;;;;;;;;;;;;;13.17;100.00;99986.19;3054989;19;19919;-47
2022/09/09 03:08:45;;;;;;;;;;;;;;;13.18;100.00;99974.50;3055420;19;19943;-48
2022/09/09 03:09:55;;;;;;;;;;;;;;;13.24;100.00;99976.69;3054820;19;19919;-47
2022/09/09 03:11:03;;;;;;;;;;;;;;;13.18;100.00;99987.88;3055056;19;19926;-44
2022/09/09 03:12:10;;;;;;;;;;;;;;;13.13;100.00;99979.34;3054730;19;20268;-46
2022/09/09 03:13:15;;;;;;;;;;;;;;;13.17;100.00;99974.59;3055297;19;20016;-48
2022/09/09 03:14:21;;;;;;;;;;;;;;;13.20;100.00;99977.91;3055026;19;19927;-46
2022/09/09 03:15:28;;;;;;;;;;;;;;;13.15;100.00;99972.09;3055544;19;19926;-46
2022/09/09 03:16:32;;;;;;;;;;;;;;;13.16;100.00;99963.03;3054529;19;20361;-48
2022/09/09 03:17:37;;;;;;;;;;;;;;;13.11;100.00;99970.59;3054937;19;19926;-46
2022/09/09 03:18:40;;;;;;;;;;;;;;;13.12;100.00;99961.56;3054635;19;19940;-49
2022/09/09 03:19:44;;;;;;;;;;;;;;;13.13;100.00;99960.59;3054880;19;19931;-46
2022/09/09 03:20:48;;;;;;;;;;;;;;;13.10;100.00;99963.50;3054913;19;19915;-45
2022/09/09 03:21:53;;;;;;;;;;;;;;;13.04;100.00;99953.28;3054628;19;20338;-45
2022/09/09 03:22:55;;;;;;;;;;;;;;;13.07;100.00;99946.81;3054692;19;19914;-48
2022/09/09 03:24:00;;;;;;;;;;;;;;;13.09;100.00;99951.09;3055699;19;20014;-46
2022/09/09 03:25:02;;;;;;;;;;;;;;;13.11;100.00;99946.47;3054379;19;20260;-44
2022/09/09 03:26:07;;;;;;;;;;;;;;;13.09;100.00;99940.38;3055025;19;19923;-45
2022/09/09 03:27:14;;;;;;;;;;;;;;;13.07;100.00;99942.31;3054748;19;20524;-46
2022/09/09 03:28:20;;;;;;;;;;;;;;;13.08;100.00;99941.34;3054996;19;19922;-48
2022/09/09 03:29:23;;;;;;;;;;;;;;;13.09;100.00;99943.06;3055274;19;20085;-44
2022/09/09 03:30:30;;;;;;;;;;;;;;;12.99;100.00;99940.28;3054365;19;19915;-46
2022/09/09 03:31:33;;;;;;;;;;;;;;;12.93;100.00;99946.09;3054902;19;19919;-45
2022/09/09 03:32:39;;;;;;;;;;;;;;;12.89;100.00;99933.09;3054578;19;20264;-45
2022/09/09 03:33:41;;;;;;;;;;;;;;;12.92;100.00;99938.22;3054815;19;20331;-43
2022/09/09 03:34:49;;;;;;;;;;;;;;;12.95;100.00;99937.94;3054770;19;20479;-47
2022/09/09 03:35:51;;;;;;;;;;;;;;;12.99;100.00;99931.38;3055030;19;19956;-47
2022/09/09 03:36:57;;;;;;;;;;;;;;;12.93;100.00;99934.53;3054541;19;19923;-46
2022/09/09 03:38:00;;;;;;;;;;;;;;;13.00;100.00;99935.78;3054912;19;20002;-48
2022/09/09 03:39:07;;;;;;;;;;;;;;;13.04;100.00;99931.84;3054709;19;20015;-46
2022/09/09 03:40:10;;;;;;;;;;;;;;;13.04;100.00;99931.84;3054823;19;20330;-45
2022/09/09 03:41:14;;;;;;;;;;;;;;;13.05;100.00;99927.34;3054104;19;20008;-44
2022/09/09 03:42:18;;;;;;;;;;;;;;;13.07;100.00;99930.75;3054617;19;19936;-44
2022/09/09 03:43:26;;;;;;;;;;;;;;;13.08;100.00;99933.31;3054835;19;20235;-45
2022/09/09 03:44:28;;;;;;;;;;;;;;;13.08;100.00;99933.31;3054761;19;19919;-45
2022/09/09 03:45:32;;;;;;;;;;;;;;;13.05;100.00;99933.56;3053924;19;19919;-49
2022/09/09 03:46:34;;;;;;;;;;;;;;;13.11;100.00;99937.56;3054786;19;19955;-44
2022/09/09 03:47:39;;;;;;;;;;;;;;;13.09;100.00;99934.16;3054473;19;19927;-47
2022/09/09 03:48:41;;;;;;;;;;;;;;;13.11;100.00;99933.06;3054863;19;19978;-47
2022/09/09 03:49:45;;;;;;;;;;;;;;;13.14;100.00;99932.88;3054977;19;19919;-48
2022/09/09 03:50:48;;;;;;;;;;;;;;;13.18;100.00;99936.97;3054749;19;20278;-47
2022/09/09 03:51:53;;;;;;;;;;;;;;;13.23;100.00;99950.00;3054354;19;19935;-47
2022/09/09 03:52:56;;;;;;;;;;;;;;;13.24;100.00;99938.31;3054317;19;19947;-45
2022/09/09 03:54:01;;;;;;;;;;;;;;;13.22;100.00;99930.41;3054442;19;19919;-47
2022/09/09 03:55:03;;;;;;;;;;;;;;;13.26;100.00;99942.59;3054805;19;19947;-45
2022/09/09 03:56:08;;;;;;;;;;;;;;;13.25;100.00;99935.53;3054108;19;19919;-46
2022/09/09 03:57:10;;;;;;;;;;;;;;;13.25;100.00;99935.53;3055193;19;20233;-45
2022/09/09 03:58:15;;;;;;;;;;;;;;;13.24;100.00;99936.50;3054104;19;19947;-48
2022/09/09 03:59:17;;;;;;;;;;;;;;;13.22;100.00;99945.63;3054221;19;20023;-47
2022/09/09 04:00:22;;;;;;;;;;;;;;;13.28;100.00;99942.47;3053090;19;19978;-46
2022/09/09 04:01:29;;;;;;;;;;;;;;;13.26;100.00;99942.59;3054566;19;20311;-47
2022/09/09 04:02:31;;;;;;;;;;;;;;;13.28;100.00;99939.78;3054107;19;20001;-49
2022/09/09 04:03:35;;;;;;;;;;;;;;;13.30;100.00;99932.44;3054376;19;19989;-48
2022/09/09 04:04:37;;;;;;;;;;;;;;;13.31;100.00;99943.06;3055225;19;20605;-46
2022/09/09 04:05:42;;;;;;;;;;;;;;;13.30;100.00;99932.44;3053369;19;19918;-48
2022/09/09 04:06:44;;;;;;;;;;;;;;;13.32;100.00;99934.03;3054377;19;19919;-44
2022/09/09 04:07:51;;;;;;;;;;;;;;;13.29;100.00;99936.97;3054483;19;19944;-47
2022/09/09 04:08:52;;;;;;;;;;;;;;;13.33;100.00;99933.06;3054485;19;19935;-48
2022/09/09 04:09:57;;;;;;;;;;;;;;;13.30;100.00;99937.81;3054273;19;19997;-46
2022/09/09 04:11:01;;;;;;;;;;;;;;;13.36;100.00;99931.13;3054419;19;20040;-45
2022/09/09 04:12:06;;;;;;;;;;;;;;;13.40;100.00;99937.94;3054375;19;19994;-44
2022/09/09 04:13:09;;;;;;;;;;;;;;;13.38;100.00;99935.38;3058024;19;19922;-47
2022/09/09 04:14:14;;;;;;;;;;;;;;;13.39;100.00;99931.72;3057322;19;19927;-48
2022/09/09 04:15:18;;;;;;;;;;;;;;;13.40;100.00;99932.56;3057514;19;19928;-47
2022/09/09 04:16:23;;;;;;;;;;;;;;;13.34;100.00;99929.41;3057272;19;19919;-45
2022/09/09 04:17:25;;;;;;;;;;;;;;;13.37;100.00;99932.81;3057494;19;19927;-45
2022/09/09 04:18:30;;;;;;;;;;;;;;;13.36;100.00;99936.47;3058454;19;19949;-49
2022/09/09 04:19:33;;;;;;;;;;;;;;;13.34;100.00;99940.13;3056130;19;19919;-45
2022/09/09 04:20:38;;;;;;;;;;;;;;;13.30;100.00;99937.81;3055664;19;20045;-46
2022/09/09 04:21:41;;;;;;;;;;;;;;;13.37;100.00;99938.19;3055737;19;19943;-45
2022/09/09 04:22:46;;;;;;;;;;;;;;;13.34;100.00;99937.44;3055552;19;19959;-47
2022/09/09 04:23:48;;;;;;;;;;;;;;;13.41;100.00;99934.25;3055906;19;19918;-44
2022/09/09 04:24:53;;;;;;;;;;;;;;;13.44;100.00;99942.91;3055820;19;19922;-45
2022/09/09 04:25:55;;;;;;;;;;;;;;;13.39;100.00;99941.59;3055040;19;19926;-45
2022/09/09 04:27:00;;;;;;;;;;;;;;;13.42;100.00;99941.31;3055548;19;20247;-47
2022/09/09 04:28:02;;;;;;;;;;;;;;;13.42;100.00;99941.31;3055550;19;19923;-45
2022/09/09 04:29:07;;;;;;;;;;;;;;;13.42;100.00;99944.84;3055211;19;19922;-46
2022/09/09 04:30:10;;;;;;;;;;;;;;;13.38;100.00;99942.56;3054833;19;20302;-49
2022/09/09 04:31:19;;;;;;;;;;;;;;;13.43;100.00;99949.22;3056683;19;19927;-47
2022/09/09 04:32:23;;;;;;;;;;;;;;;13.47;100.00;99947.16;3055738;19;19929;-46
2022/09/09 04:33:29;;;;;;;;;;;;;;;13.47;100.00;99942.66;3052737;19;19923;-45
2022/09/09 04:34:32;;;;;;;;;;;;;;;13.48;100.00;99946.19;3057636;19;19919;-46
2022/09/09 04:35:37;;;;;;;;;;;;;;;13.50;100.00;99949.59;3056628;19;19914;-44
2022/09/09 04:36:40;;;;;;;;;;;;;;;13.48;100.00;99952.41;3057177;19;20026;-48
2022/09/09 04:37:45;;;;;;;;;;;;;;;13.55;100.00;99947.38;3056987;19;20009;-47
2022/09/09 04:38:48;;;;;;;;;;;;;;;13.52;100.00;99953.00;3057330;19;20392;-46
2022/09/09 04:39:53;;;;;;;;;;;;;;;13.59;100.00;99948.84;3056822;19;19979;-44
2022/09/09 04:40:55;;;;;;;;;;;;;;;13.64;100.00;99947.47;3056643;19;19923;-45
2022/09/09 04:42:00;;;;;;;;;;;;;;;13.65;100.00;99959.03;3056808;19;19992;-45
2022/09/09 04:43:03;;;;;;;;;;;;;;;13.67;100.00;99951.72;3057012;19;19939;-45
2022/09/09 04:44:07;;;;;;;;;;;;;;;13.64;100.00;99954.69;3057886;19;19976;-48
2022/09/09 04:45:11;;;;;;;;;;;;;;;13.69;100.00;99957.81;3056870;19;19915;-46
2022/09/09 04:46:17;;;;;;;;;;;;;;;13.73;100.00;99961.09;3057182;19;19923;-46
2022/09/09 04:47:19;;;;;;;;;;;;;;;13.73;100.00;99961.94;3056604;19;20295;-48
2022/09/09 04:48:24;;;;;;;;;;;;;;;13.77;100.00;99967.88;3056754;19;19919;-49
2022/09/09 04:49:31;;;;;;;;;;;;;;;13.80;100.00;99968.50;3057113;19;19914;-45
2022/09/09 04:50:33;;;;;;;;;;;;;;;13.78;100.00;99969.59;3057013;19;19927;-46
2022/09/09 04:51:38;;;;;;;;;;;;;;;13.78;100.00;99973.13;3056891;19;19928;-48
2022/09/09 04:52:41;;;;;;;;;;;;;;;13.84;100.00;99975.31;3057085;19;19962;-47
2022/09/09 04:53:46;;;;;;;;;;;;;;;13.87;100.00;99975.06;3056581;19;19983;-46
2022/09/09 04:54:48;;;;;;;;;;;;;;;13.89;100.00;99982.97;3056792;19;19918;-47
2022/09/09 04:55:53;;;;;;;;;;;;;;;13.92;100.00;99986.25;3056383;19;19927;-47
2022/09/09 04:56:55;;;;;;;;;;;;;;;13.88;100.00;99990.19;3056717;19;19938;-45
2022/09/09 04:58:00;;;;;;;;;;;;;;;13.91;100.00;99994.41;3056305;19;19927;-48
2022/09/09 04:59:02;;;;;;;;;;;;;;;13.90;100.00;99993.56;3057961;19;19922;-45
2022/09/09 05:00:19;;;;;;;;;;;;;;;13.92;100.00;99994.28;3056956;19;19919;-48
2022/09/09 05:01:24;;;;;;;;;;;;;;;13.93;100.00;99990.63;3057801;19;20042;-47
2022/09/09 05:02:30;;;;;;;;;;;;;;;13.95;100.00;99993.19;3057535;19;19998;-45
2022/09/09 05:03:32;;;;;;;;;;;;;;;13.91;100.00;99994.41;3058282;19;19922;-47
2022/09/09 05:04:37;;;;;;;;;;;;;;;13.83;100.00;99989.72;3056616;19;19930;-47
2022/09/09 05:05:39;;;;;;;;;;;;;;;13.90;100.00;99996.25;3056915;19;19915;-48
2022/09/09 05:06:44;;;;;;;;;;;;;;;13.94;100.00;99994.19;3056126;19;19986;-47
2022/09/09 05:07:48;;;;;;;;;;;;;;;13.91;100.00;99997.97;3056650;19;19922;-47
2022/09/09 05:08:52;;;;;;;;;;;;;;;13.92;100.00;99998.81;3056570;19;19922;-47
2022/09/09 05:09:58;;;;;;;;;;;;;;;13.90;100.00;99996.25;3056876;19;19970;-47
2022/09/09 05:11:03;;;;;;;;;;;;;;;13.91;100.00;99995.28;3057748;19;19943;-46
2022/09/09 05:12:05;;;;;;;;;;;;;;;13.91;100.00;99994.41;3055704;19;19919;-45
2022/09/09 05:13:12;;;;;;;;;;;;;;;13.88;100.00;99992.03;3056351;19;19936;-46
2022/09/09 05:14:14;;;;;;;;;;;;;;;13.91;100.00;99997.97;3055319;19;19930;-45
2022/09/09 05:15:20;;;;;;;;;;;;;;;13.91;100.00;99992.59;3055871;19;20637;-47
2022/09/09 05:16:22;;;;;;;;;;;;;;;13.92;100.00;99999.66;3057474;19;19947;-46
2022/09/09 05:17:27;;;;;;;;;;;;;;;13.94;100.00;99997.72;3055773;19;19919;-48
2022/09/09 05:18:29;;;;;;;;;;;;;;;13.92;100.00;99999.66;3056926;19;19935;-46
2022/09/09 05:19:33;;;;;;;;;;;;;;;13.88;100.00;99998.22;3056335;19;19946;-45
2022/09/09 05:20:36;;;;;;;;;;;;;;;13.84;100.00;100002.13;3056127;19;19919;-48
2022/09/09 05:21:41;;;;;;;;;;;;;;;13.88;100.00;99997.38;3056576;19;19940;-48
2022/09/09 05:22:43;;;;;;;;;;;;;;;13.90;100.00;99995.41;3056454;19;19915;-47
2022/09/09 05:23:48;;;;;;;;;;;;;;;13.89;100.00;99994.53;3055661;19;19919;-46
2022/09/09 05:24:50;;;;;;;;;;;;;;;13.90;100.00;99995.41;3056783;19;20517;-46
2022/09/09 05:25:58;;;;;;;;;;;;;;;13.92;100.00;99996.97;3055778;19;19969;-49
2022/09/09 05:27:02;;;;;;;;;;;;;;;13.89;100.00;99983.81;3056011;19;19918;-48
2022/09/09 05:28:07;;;;;;;;;;;;;;;13.95;100.00;99999.41;3056247;19;19919;-47
2022/09/09 05:29:09;;;;;;;;;;;;;;;13.94;100.00;100002.22;3056500;19;19996;-46
2022/09/09 05:30:14;;;;;;;;;;;;;;;13.95;100.00;99996.72;3056729;19;19919;-48
2022/09/09 05:31:17;;;;;;;;;;;;;;;13.97;100.00;99997.47;3055662;19;19939;-47
2022/09/09 05:32:24;;;;;;;;;;;;;;;13.95;100.00;100004.78;3056306;19;19931;-46
2022/09/09 05:33:26;;;;;;;;;;;;;;;13.95;100.00;99999.41;3056853;19;20346;-50
2022/09/09 05:34:31;;;;;;;;;;;;;;;13.96;100.00;100003.81;3056617;19;20227;-49
2022/09/09 05:35:34;;;;;;;;;;;;;;;13.96;100.00;100003.81;3055593;19;19923;-47
2022/09/09 05:36:39;;;;;;;;;;;;;;;13.97;100.00;99992.09;3055917;19;20468;-50
2022/09/09 05:37:42;;;;;;;;;;;;;;;13.99;100.00;99987.47;3056118;19;19943;-46
2022/09/09 05:38:46;;;;;;;;;;;;;;;13.95;100.00;99994.06;3055709;19;20539;-46
2022/09/09 05:39:48;;;;;;;;;;;;;;;13.95;100.00;99983.31;3055703;19;19938;-48